createdAt,value
2018-07-27T00:01:12.470Z,25.10
2018-07-27T00:04:08.634Z,25.00
2018-07-27T00:07:05.130Z,24.90
2018-07-27T00:10:01.550Z,24.90
2018-07-27T00:12:58.007Z,24.90
2018-07-27T00:15:55.003Z,24.90
2018-07-27T00:18:51.395Z,24.80
2018-07-27T00:21:47.471Z,24.80
2018-07-27T00:24:43.603Z,24.70
2018-07-27T00:27:40.129Z,24.60
2018-07-27T00:30:36.208Z,24.60
2018-07-27T00:33:32.590Z,24.50
2018-07-27T00:36:28.856Z,24.50
2018-07-27T00:39:25.365Z,24.50
2018-07-27T00:42:21.801Z,24.50
2018-07-27T00:45:17.962Z,24.50
2018-07-27T00:48:14.350Z,24.40
2018-07-27T00:51:10.433Z,24.40
2018-07-27T00:54:06.838Z,24.30
2018-07-27T00:57:03.102Z,24.30
2018-07-27T00:59:59.684Z,24.20
2018-07-27T01:02:56.090Z,24.30
2018-07-27T01:05:52.835Z,24.30
2018-07-27T01:08:49.420Z,24.30
2018-07-27T01:11:45.515Z,24.30
2018-07-27T01:14:42.190Z,24.30
2018-07-27T01:17:38.981Z,24.20
2018-07-27T01:20:35.733Z,24.20
2018-07-27T01:23:32.019Z,24.20
2018-07-27T01:26:28.615Z,24.20
2018-07-27T01:29:25.255Z,24.20
2018-07-27T01:32:21.634Z,24.20
2018-07-27T01:35:18.084Z,24.20
2018-07-27T01:38:14.255Z,24.10
2018-07-27T01:41:11.004Z,24.10
2018-07-27T01:44:07.505Z,24.10
2018-07-27T01:47:03.871Z,24.10
2018-07-27T01:50:00.234Z,23.90
2018-07-27T01:52:56.695Z,23.90
2018-07-27T01:55:52.788Z,23.80
2018-07-27T01:58:48.858Z,23.80
2018-07-27T02:01:45.278Z,23.80
2018-07-27T02:04:42.266Z,23.80
2018-07-27T02:07:38.468Z,23.70
2018-07-27T02:10:34.841Z,23.80
2018-07-27T02:13:31.651Z,23.80
2018-07-27T02:16:28.075Z,23.70
2018-07-27T02:19:24.139Z,23.70
2018-07-27T02:22:20.659Z,23.70
2018-07-27T02:25:18.151Z,23.60
2018-07-27T02:28:14.255Z,23.50
2018-07-27T02:31:10.804Z,23.50
2018-07-27T02:34:07.750Z,23.50
2018-07-27T02:37:04.557Z,23.50
2018-07-27T02:40:01.364Z,23.50
2018-07-27T02:42:58.111Z,23.50
2018-07-27T02:45:54.691Z,23.40
2018-07-27T02:48:51.110Z,23.40
2018-07-27T02:51:47.181Z,23.40
2018-07-27T02:54:43.936Z,23.30
2018-07-27T02:57:40.773Z,23.30
2018-07-27T03:00:37.560Z,23.30
2018-07-27T03:03:34.418Z,23.30
2018-07-27T03:06:31.098Z,23.20
2018-07-27T03:09:27.899Z,23.20
2018-07-27T03:12:24.598Z,23.20
2018-07-27T03:15:21.133Z,23.10
2018-07-27T03:18:17.663Z,23.10
2018-07-27T03:21:14.045Z,23.00
2018-07-27T03:24:10.964Z,22.90
2018-07-27T03:27:07.797Z,22.90
2018-07-27T03:30:05.085Z,22.90
2018-07-27T03:33:01.503Z,22.80
2018-07-27T03:35:57.888Z,22.80
2018-07-27T03:38:54.733Z,22.70
2018-07-27T03:41:51.596Z,22.70
2018-07-27T03:44:48.188Z,22.70
2018-07-27T03:47:44.264Z,22.70
2018-07-27T03:50:41.772Z,22.70
2018-07-27T03:53:38.316Z,22.70
2018-07-27T03:56:34.833Z,22.70
2018-07-27T03:59:31.237Z,22.60
2018-07-27T04:05:23.357Z,22.50
2018-07-27T04:08:19.841Z,22.60
2018-07-27T04:11:16.218Z,22.60
2018-07-27T04:14:12.344Z,22.60
2018-07-27T04:17:08.851Z,22.70
2018-07-27T04:20:05.746Z,22.70
2018-07-27T04:23:02.477Z,22.80
2018-07-27T04:25:59.122Z,22.80
2018-07-27T04:28:55.907Z,22.80
2018-07-27T04:31:52.622Z,22.80
2018-07-27T04:34:49.479Z,22.80
2018-07-27T04:37:46.139Z,22.80
2018-07-27T04:40:42.828Z,22.80
2018-07-27T04:43:39.068Z,22.90
2018-07-27T04:46:35.573Z,22.90
2018-07-27T04:49:32.403Z,23.00
2018-07-27T04:52:29.320Z,23.00
2018-07-27T04:55:25.719Z,23.00
2018-07-27T04:58:22.518Z,23.10
2018-07-27T05:01:18.868Z,23.10
2018-07-27T05:04:15.456Z,23.10
2018-07-27T05:07:11.873Z,23.00
2018-07-27T05:10:13.597Z,23.00
2018-07-27T05:13:09.988Z,23.10
2018-07-27T05:16:06.396Z,23.00
2018-07-27T05:19:03.281Z,23.00
2018-07-27T05:21:59.749Z,23.20
2018-07-27T05:24:56.421Z,23.20
2018-07-27T05:27:52.841Z,23.20
2018-07-27T05:30:48.915Z,23.20
2018-07-27T05:33:47.443Z,23.30
2018-07-27T05:36:44.187Z,23.30
2018-07-27T05:39:40.584Z,23.40
2018-07-27T05:42:37.013Z,23.40
2018-07-27T05:45:33.415Z,23.40
2018-07-27T05:51:25.866Z,23.60
2018-07-27T05:54:22.056Z,23.70
2018-07-27T05:57:18.436Z,23.80
2018-07-27T06:03:11.073Z,24.00
2018-07-27T06:06:07.558Z,24.10
2018-07-27T06:09:04.475Z,24.70
2018-07-27T06:12:00.650Z,25.80
2018-07-27T06:14:59.763Z,26.70
2018-07-27T06:17:56.090Z,27.80
2018-07-27T06:20:52.146Z,28.70
2018-07-27T06:23:48.425Z,29.30
2018-07-27T06:26:44.480Z,30.00
2018-07-27T06:29:41.191Z,30.50
2018-07-27T06:35:34.051Z,31.50
2018-07-27T06:38:30.131Z,31.80
2018-07-27T06:41:26.216Z,32.30
2018-07-27T06:44:23.031Z,32.80
2018-07-27T06:47:19.134Z,33.00
2018-07-27T06:50:16.022Z,33.20
2018-07-27T06:53:12.421Z,33.30
2018-07-27T06:56:08.492Z,33.50
2018-07-27T06:59:05.193Z,33.90
2018-07-27T07:02:01.344Z,34.30
2018-07-27T07:04:58.093Z,34.50
2018-07-27T07:07:54.651Z,34.90
2018-07-27T07:10:50.842Z,35.10
2018-07-27T07:13:47.504Z,35.30
2018-07-27T07:16:43.983Z,35.20
2018-07-27T07:19:40.094Z,35.40
2018-07-27T07:22:36.824Z,35.70
2018-07-27T07:25:33.119Z,35.70
2018-07-27T07:28:29.132Z,35.60
2018-07-27T07:31:25.903Z,35.90
2018-07-27T07:34:22.678Z,36.20
2018-07-27T07:37:19.303Z,36.60
2018-07-27T07:40:16.101Z,36.90
2018-07-27T07:43:12.520Z,37.00
2018-07-27T07:46:09.539Z,37.20
2018-07-27T07:49:06.697Z,37.20
2018-07-27T07:52:03.490Z,37.30
2018-07-27T07:54:59.587Z,37.60
2018-07-27T07:57:56.494Z,37.60
2018-07-27T08:00:52.863Z,37.70
2018-07-27T08:03:49.243Z,38.00
2018-07-27T08:06:45.978Z,38.20
2018-07-27T08:09:42.374Z,37.90
2018-07-27T08:12:38.773Z,38.10
2018-07-27T08:15:34.871Z,38.30
2018-07-27T08:18:31.328Z,38.30
2018-07-27T08:21:28.432Z,38.30
2018-07-27T08:24:25.344Z,38.50
2018-07-27T08:27:21.739Z,38.30
2018-07-27T08:30:18.140Z,38.70
2018-07-27T08:33:14.244Z,38.70
2018-07-27T08:36:10.729Z,39.10
2018-07-27T08:39:08.988Z,39.30
2018-07-27T08:42:05.833Z,39.70
2018-07-27T08:45:02.670Z,40.20
2018-07-27T08:47:59.058Z,40.40
2018-07-27T08:50:55.429Z,40.40
2018-07-27T08:53:51.536Z,40.70
2018-07-27T08:56:47.929Z,40.60
2018-07-27T08:59:44.097Z,40.40
2018-07-27T09:02:40.469Z,40.50
2018-07-27T09:05:36.555Z,40.50
2018-07-27T09:08:32.956Z,40.80
2018-07-27T09:11:29.363Z,41.20
2018-07-27T09:14:25.453Z,40.70
2018-07-27T09:17:21.851Z,41.00
2018-07-27T09:20:18.241Z,40.90
2018-07-27T09:23:14.318Z,40.80
2018-07-27T09:26:10.761Z,40.70
2018-07-27T09:29:06.830Z,40.80
2018-07-27T09:34:59.245Z,39.50
2018-07-27T09:37:55.314Z,39.30
2018-07-27T09:40:51.722Z,38.50
2018-07-27T09:43:47.802Z,37.70
2018-07-27T09:46:44.184Z,37.30
2018-07-27T09:49:41.045Z,37.40
2018-07-27T09:52:37.784Z,37.50
2018-07-27T09:55:34.465Z,37.10
2018-07-27T09:58:30.832Z,36.70
2018-07-27T10:01:28.510Z,36.30
2018-07-27T10:04:25.644Z,35.90
2018-07-27T10:07:21.748Z,35.60
2018-07-27T10:10:18.524Z,35.50
2018-07-27T10:13:14.616Z,35.50
2018-07-27T10:16:11.015Z,35.40
2018-07-27T10:19:07.087Z,35.30
2018-07-27T10:22:03.905Z,35.00
2018-07-27T10:25:00.307Z,34.70
2018-07-27T10:27:56.402Z,34.70
2018-07-27T10:30:53.227Z,34.70
2018-07-27T10:33:49.617Z,34.80
2018-07-27T10:36:45.698Z,34.60
2018-07-27T10:39:44.777Z,34.40
2018-07-27T10:42:40.873Z,34.20
2018-07-27T10:45:37.627Z,33.90
2018-07-27T10:48:34.090Z,33.70
2018-07-27T10:51:30.155Z,33.60
2018-07-27T10:54:26.868Z,33.30
2018-07-27T10:57:23.271Z,33.20
2018-07-27T11:00:20.102Z,33.20
2018-07-27T11:03:16.551Z,33.20
2018-07-27T11:06:12.710Z,33.20
2018-07-27T11:09:10.165Z,33.00
2018-07-27T11:12:06.541Z,32.80
2018-07-27T11:15:02.622Z,32.80
2018-07-27T11:17:59.395Z,32.70
2018-07-27T11:20:55.785Z,32.80
2018-07-27T11:23:51.870Z,32.80
2018-07-27T11:26:48.594Z,32.80
2018-07-27T11:29:44.978Z,32.80
2018-07-27T11:32:41.064Z,32.70
2018-07-27T11:35:37.761Z,32.70
2018-07-27T11:38:34.157Z,32.70
2018-07-27T11:41:30.890Z,32.70
2018-07-27T11:44:27.279Z,32.70
2018-07-27T11:47:23.382Z,32.60
2018-07-27T11:50:20.155Z,32.50
2018-07-27T11:53:16.170Z,32.60
2018-07-27T11:56:12.235Z,32.60
2018-07-27T11:59:08.422Z,32.60
2018-07-27T12:02:04.572Z,32.70
2018-07-27T12:05:01.396Z,32.70
2018-07-27T12:07:57.802Z,32.70
2018-07-27T12:10:54.482Z,32.70
2018-07-27T12:13:50.931Z,32.80
2018-07-27T12:16:47.650Z,32.80
2018-07-27T12:19:44.031Z,32.80
2018-07-27T12:22:40.859Z,32.90
2018-07-27T12:25:36.955Z,32.90
2018-07-27T12:28:33.038Z,32.90
2018-07-27T12:31:29.130Z,32.90
2018-07-27T12:34:25.984Z,33.00
2018-07-27T12:37:22.249Z,32.90
2018-07-27T12:40:18.823Z,32.90
2018-07-27T12:43:15.269Z,33.00
2018-07-27T12:46:11.973Z,33.00
2018-07-27T12:49:08.804Z,33.00
2018-07-27T12:52:04.883Z,33.10
2018-07-27T12:55:01.626Z,33.10
2018-07-27T12:57:58.021Z,33.20
2018-07-27T13:00:54.729Z,33.40
2018-07-27T13:03:50.862Z,33.70
2018-07-27T13:06:47.648Z,33.90
2018-07-27T13:09:44.019Z,34.10
2018-07-27T13:12:40.544Z,34.20
2018-07-27T13:15:36.916Z,34.20
2018-07-27T13:18:32.995Z,34.20
2018-07-27T13:21:29.696Z,34.10
2018-07-27T13:27:22.555Z,33.90
2018-07-27T13:30:18.933Z,34.00
2018-07-27T13:33:15.757Z,33.90
2018-07-27T13:36:12.126Z,33.80
2018-07-27T13:39:09.042Z,33.70
2018-07-27T13:42:06.300Z,33.80
2018-07-27T13:45:03.018Z,33.90
2018-07-27T13:47:59.128Z,33.80
2018-07-27T13:50:55.999Z,33.70
2018-07-27T13:53:52.081Z,33.50
2018-07-27T13:56:49.108Z,33.40
2018-07-27T13:59:46.059Z,33.30
2018-07-27T14:02:42.143Z,33.30
2018-07-27T14:05:38.772Z,33.20
2018-07-27T14:08:34.862Z,33.20
2018-07-27T14:11:31.560Z,33.10
2018-07-27T14:14:27.603Z,33.20
2018-07-27T14:17:25.744Z,33.20
2018-07-27T14:20:21.888Z,33.00
2018-07-27T14:23:18.663Z,33.10
2018-07-27T14:26:15.009Z,33.10
2018-07-27T14:29:11.728Z,33.20
2018-07-27T14:32:08.217Z,33.20
2018-07-27T14:35:05.494Z,33.30
2018-07-27T14:38:01.868Z,33.30
2018-07-27T14:40:57.948Z,33.20
2018-07-27T14:43:54.659Z,32.90
2018-07-27T14:46:51.030Z,32.70
2018-07-27T14:49:47.089Z,32.60
2018-07-27T14:52:43.297Z,32.50
2018-07-27T14:55:40.046Z,32.40
2018-07-27T15:01:32.201Z,32.50
2018-07-27T15:07:25.349Z,32.50
2018-07-27T15:10:22.178Z,32.50
2018-07-27T15:13:18.295Z,32.50
2018-07-27T15:16:15.038Z,32.30
2018-07-27T15:19:11.384Z,32.30
2018-07-27T15:22:07.466Z,32.20
2018-07-27T15:25:04.118Z,32.00
2018-07-27T15:28:00.176Z,31.90
2018-07-27T15:30:56.959Z,31.70
2018-07-27T15:33:53.359Z,31.70
2018-07-27T15:36:49.532Z,31.70
2018-07-27T15:39:46.291Z,31.60
2018-07-27T15:42:43.081Z,31.60
2018-07-27T15:45:39.208Z,31.60
2018-07-27T15:48:36.058Z,31.60
2018-07-27T15:51:32.863Z,31.50
2018-07-27T15:54:29.289Z,31.40
2018-07-27T15:57:26.106Z,31.40
2018-07-27T16:00:22.887Z,31.30
2018-07-27T16:03:21.826Z,31.40
2018-07-27T16:06:17.915Z,31.40
2018-07-27T16:09:14.025Z,31.30
2018-07-27T16:12:10.494Z,31.30
2018-07-27T16:15:06.570Z,31.30
2018-07-27T16:18:02.637Z,31.20
2018-07-27T16:20:59.053Z,31.10
2018-07-27T16:23:55.229Z,31.10
2018-07-27T16:26:51.311Z,31.00
2018-07-27T16:29:47.940Z,31.00
2018-07-27T16:32:44.556Z,30.90
2018-07-27T16:35:41.033Z,31.00
2018-07-27T16:38:37.107Z,30.90
2018-07-27T16:41:33.224Z,30.70
2018-07-27T16:44:30.331Z,30.70
2018-07-27T16:47:26.789Z,30.70
2018-07-27T16:50:24.216Z,30.70
2018-07-27T16:53:20.306Z,30.70
2018-07-27T16:56:16.399Z,30.60
2018-07-27T16:59:13.167Z,30.50
2018-07-27T17:02:10.022Z,30.60
2018-07-27T17:05:07.122Z,30.60
2018-07-27T17:08:03.228Z,30.50
2018-07-27T17:10:59.978Z,30.40
2018-07-27T17:13:56.787Z,30.40
2018-07-27T17:16:53.189Z,30.40
2018-07-27T17:19:49.255Z,30.40
2018-07-27T17:22:46.054Z,30.30
2018-07-27T17:25:42.982Z,30.30
2018-07-27T17:28:39.226Z,30.30
2018-07-27T17:31:35.316Z,30.30
2018-07-27T17:34:31.983Z,30.20
2018-07-27T17:37:28.834Z,30.20
2018-07-27T17:40:24.903Z,30.20
2018-07-27T17:43:21.440Z,30.20
2018-07-27T17:46:17.861Z,30.10
2018-07-27T17:49:13.941Z,30.10
2018-07-27T17:52:10.788Z,30.00
2018-07-27T17:55:06.958Z,30.00
2018-07-27T17:58:03.699Z,30.00
2018-07-27T18:00:59.767Z,29.90
2018-07-27T18:03:56.657Z,29.90
2018-07-27T18:06:52.779Z,29.80
2018-07-27T18:09:49.564Z,29.80
2018-07-27T18:12:45.972Z,29.80
2018-07-27T18:15:42.653Z,29.80
2018-07-27T18:18:39.407Z,29.70
2018-07-27T18:21:35.790Z,29.70
2018-07-27T18:24:32.538Z,29.70
2018-07-27T18:28:08.195Z,29.60
2018-07-27T18:31:04.614Z,29.60
2018-07-27T18:34:01.377Z,29.50
2018-07-27T18:36:58.137Z,29.50
2018-07-27T18:39:54.820Z,29.50
2018-07-27T18:42:51.949Z,29.40
2018-07-27T18:45:48.615Z,29.30
2018-07-27T18:48:45.433Z,29.30
2018-07-27T18:51:41.539Z,29.20
2018-07-27T18:54:37.751Z,29.20
2018-07-27T18:57:34.233Z,29.10
2018-07-27T19:00:30.305Z,29.10
2018-07-27T19:03:26.562Z,29.10
2018-07-27T19:06:23.228Z,29.00
2018-07-27T19:09:20.049Z,29.00
2018-07-27T19:12:16.919Z,28.90
2018-07-27T19:15:13.000Z,28.90
2018-07-27T19:18:09.700Z,28.80
2018-07-27T19:21:05.890Z,28.80
2018-07-27T19:24:02.430Z,28.70
2018-07-27T19:26:59.113Z,28.80
2018-07-27T19:29:55.190Z,28.80
2018-07-27T19:32:51.879Z,28.60
2018-07-27T19:35:48.066Z,28.60
2018-07-27T19:38:44.800Z,28.60
2018-07-27T19:41:42.554Z,28.60
2018-07-27T19:44:39.272Z,28.60
2018-07-27T19:47:35.344Z,28.50
2018-07-27T19:50:31.401Z,28.40
2018-07-27T19:56:24.200Z,28.40
2018-07-27T19:59:21.023Z,28.30
2018-07-27T20:02:17.850Z,28.30
2018-07-27T20:05:14.575Z,28.20
2018-07-27T20:08:11.303Z,28.30
2018-07-27T20:11:07.667Z,28.20
2018-07-27T20:14:03.754Z,28.10
2018-07-27T20:17:00.267Z,28.10
2018-07-27T20:19:56.328Z,28.00
2018-07-27T20:22:53.069Z,28.00
2018-07-27T20:25:49.930Z,27.90
2018-07-27T20:28:46.007Z,27.90
2018-07-27T20:31:42.086Z,27.80
2018-07-27T20:34:38.798Z,27.60
2018-07-27T20:37:35.883Z,27.60
2018-07-27T20:40:32.539Z,27.60
2018-07-27T20:43:29.606Z,27.60
2018-07-27T20:46:26.264Z,27.50
2018-07-27T20:49:23.056Z,27.50
2018-07-27T20:52:19.127Z,27.40
2018-07-27T20:55:15.280Z,27.40
2018-07-27T20:58:12.213Z,27.20
2018-07-27T21:01:08.705Z,27.20
2018-07-27T21:07:01.661Z,27.20
2018-07-27T21:09:57.738Z,27.20
2018-07-27T21:12:54.376Z,27.10
2018-07-27T21:15:51.112Z,27.10
2018-07-27T21:21:42.974Z,27.00
2018-07-27T21:24:39.715Z,26.90
2018-07-27T21:27:36.115Z,26.80
2018-07-27T21:30:32.502Z,26.90
2018-07-27T21:33:28.639Z,26.80
2018-07-27T21:36:25.083Z,26.70
2018-07-27T21:39:21.903Z,26.70
2018-07-27T21:42:17.964Z,26.70
2018-07-27T21:45:14.198Z,26.70
2018-07-27T21:51:06.747Z,26.70
2018-07-27T21:54:03.515Z,26.60
2018-07-27T21:57:00.304Z,26.50
2018-07-27T21:59:57.282Z,26.50
2018-07-27T22:02:54.017Z,26.50
2018-07-27T22:05:50.682Z,26.50
2018-07-27T22:08:47.556Z,26.40
2018-07-27T22:11:43.764Z,26.30
2018-07-27T22:14:41.420Z,26.30
2018-07-27T22:17:38.191Z,26.30
2018-07-27T22:20:35.109Z,26.20
2018-07-27T22:23:31.558Z,26.20
2018-07-27T22:26:27.715Z,26.10
2018-07-27T22:29:24.248Z,25.90
2018-07-27T22:32:20.963Z,25.90
2018-07-27T22:35:17.590Z,25.90
2018-07-27T22:38:13.729Z,25.90
2018-07-27T22:41:10.220Z,25.80
2018-07-27T22:44:07.349Z,25.90
2018-07-27T22:47:03.756Z,25.80
2018-07-27T22:52:56.729Z,25.80
2018-07-27T22:55:52.804Z,25.80
2018-07-27T22:58:49.258Z,25.70
2018-07-27T23:01:46.087Z,25.60
2018-07-27T23:04:43.007Z,25.60
2018-07-27T23:07:39.516Z,25.50
2018-07-27T23:10:35.615Z,25.50
2018-07-27T23:13:32.123Z,25.40
2018-07-27T23:16:28.284Z,25.40
2018-07-27T23:19:24.665Z,25.40
2018-07-27T23:22:20.749Z,25.40
2018-07-27T23:25:17.412Z,25.40
2018-07-27T23:28:13.563Z,25.40
2018-07-27T23:31:09.999Z,25.30
2018-07-27T23:34:06.541Z,25.30
2018-07-27T23:37:02.618Z,25.30
2018-07-27T23:39:59.036Z,25.20
2018-07-27T23:42:55.850Z,25.20
2018-07-27T23:45:52.673Z,25.20
2018-07-27T23:48:49.423Z,25.20
2018-07-27T23:51:46.272Z,25.10
2018-07-27T23:54:43.090Z,25.10
2018-07-27T23:57:39.251Z,25.00
